Lovelaceville, Kentucky
Current Conditions -  °F | °C
As of 7:53 AM on Friday 31 Oct 2014 (Local Time) from KPAH Reporting Station
Overcast Overcast  
Wind Chill: 51°   Ceiling: 3600
Heat Index: 51°   Visibility: 8mi
Dew Point: 48°   Wind: 8mph
Humidity: 89%   Direction: 330°NNW
Pressure: 30.07"   Gusts: NA
Location:  36.97°N, 88.83°W
Report Text: KPAH 311253Z 33007KT 8SM BKN036 OVC060 11/09 A3007 RMK AO2 RAB17E26 SLP180 P0000 T01060089
Loading
Personal Weather Stations






























Interactive Weather Map
Tropical Storm Tracking
New forecast layout! Learn more

10-Day Weather Forecast

Advertisements
Track Severe Weather on mobile